Weather at Djerba Zarzis International Airport

Public forecast

Using degrees Celsius for public forecast. Weather courtesy of forecast.io.

Current aviation weather report (METAR) for Djerba Zarzis International Airport

Report is more than 6 hours old.

2022/11/14 15:30 (retrieved 2 years ago)

DTTJ 141530Z VRB01KT CAVOK 24/11 Q1021 NOSIG

Aviation forecast (TAF) for Djerba Zarzis International Airport

Forecast is more than 12 hours old.

2023/02/22 18:39 (retrieved 1 year ago)

TAF DTTJ 221700Z 2218/2318 23010KT CAVOK BECMG 2302/2304 28005KT